sensor_id;sensor_type;location;lat;lon;timestamp;P1;durP1;ratioP1;P2;durP2;ratioP2
5690;SDS011;2870;42.680;23.364;2023-11-21T00:00:00;25.67;;;14.30;;
5690;SDS011;2870;42.680;23.364;2023-11-21T00:02:27;24.20;;;13.77;;
5690;SDS011;2870;42.680;23.364;2023-11-21T00:04:53;22.23;;;14.20;;
5690;SDS011;2870;42.680;23.364;2023-11-21T00:07:20;23.63;;;14.60;;
5690;SDS011;2870;42.680;23.364;2023-11-21T00:09:48;22.60;;;14.07;;
5690;SDS011;2870;42.680;23.364;2023-11-21T00:12:14;19.03;;;13.00;;
5690;SDS011;2870;42.680;23.364;2023-11-21T00:14:41;27.90;;;14.37;;
5690;SDS011;2870;42.680;23.364;2023-11-21T00:17:07;24.73;;;14.50;;
5690;SDS011;2870;42.680;23.364;2023-11-21T00:19:34;24.13;;;14.40;;
5690;SDS011;2870;42.680;23.364;2023-11-21T00:22:00;22.50;;;14.43;;
5690;SDS011;2870;42.680;23.364;2023-11-21T00:24:27;29.67;;;14.37;;
5690;SDS011;2870;42.680;23.364;2023-11-21T00:26:55;25.90;;;15.37;;
5690;SDS011;2870;42.680;23.364;2023-11-21T00:29:22;23.23;;;15.00;;
5690;SDS011;2870;42.680;23.364;2023-11-21T00:31:48;28.13;;;16.57;;
5690;SDS011;2870;42.680;23.364;2023-11-21T00:34:15;26.10;;;16.10;;
5690;SDS011;2870;42.680;23.364;2023-11-21T00:36:41;23.43;;;16.07;;
5690;SDS011;2870;42.680;23.364;2023-11-21T00:39:08;30.90;;;15.20;;
5690;SDS011;2870;42.680;23.364;2023-11-21T00:41:34;25.17;;;14.03;;
5690;SDS011;2870;42.680;23.364;2023-11-21T00:44:03;25.50;;;14.60;;
5690;SDS011;2870;42.680;23.364;2023-11-21T00:46:29;24.33;;;14.63;;
5690;SDS011;2870;42.680;23.364;2023-11-21T00:48:56;22.83;;;15.10;;
5690;SDS011;2870;42.680;23.364;2023-11-21T00:51:22;25.63;;;16.47;;
5690;SDS011;2870;42.680;23.364;2023-11-21T00:53:49;26.13;;;15.37;;
5690;SDS011;2870;42.680;23.364;2023-11-21T00:56:16;33.40;;;15.43;;
5690;SDS011;2870;42.680;23.364;2023-11-21T00:58:42;31.87;;;17.93;;
5690;SDS011;2870;42.680;23.364;2023-11-21T01:01:13;25.17;;;15.40;;
5690;SDS011;2870;42.680;23.364;2023-11-21T01:03:39;34.67;;;16.50;;
5690;SDS011;2870;42.680;23.364;2023-11-21T01:06:06;30.53;;;16.37;;
5690;SDS011;2870;42.680;23.364;2023-11-21T01:08:34;28.13;;;17.50;;
5690;SDS011;2870;42.680;23.364;2023-11-21T01:11:00;30.90;;;16.13;;
5690;SDS011;2870;42.680;23.364;2023-11-21T01:13:27;28.60;;;18.03;;
5690;SDS011;2870;42.680;23.364;2023-11-21T01:15:54;33.70;;;18.53;;
5690;SDS011;2870;42.680;23.364;2023-11-21T01:18:22;35.87;;;19.33;;
5690;SDS011;2870;42.680;23.364;2023-11-21T01:20:50;37.30;;;20.47;;
5690;SDS011;2870;42.680;23.364;2023-11-21T01:23:18;73.67;;;23.90;;
5690;SDS011;2870;42.680;23.364;2023-11-21T01:25:44;36.77;;;21.13;;
5690;SDS011;2870;42.680;23.364;2023-11-21T01:28:11;61.57;;;27.90;;
5690;SDS011;2870;42.680;23.364;2023-11-21T01:30:38;56.40;;;31.00;;
5690;SDS011;2870;42.680;23.364;2023-11-21T01:33:04;62.50;;;32.17;;
5690;SDS011;2870;42.680;23.364;2023-11-21T01:35:32;52.17;;;28.50;;
5690;SDS011;2870;42.680;23.364;2023-11-21T01:37:59;61.10;;;28.73;;
5690;SDS011;2870;42.680;23.364;2023-11-21T01:40:25;55.30;;;29.40;;
5690;SDS011;2870;42.680;23.364;2023-11-21T01:42:53;53.10;;;28.07;;
5690;SDS011;2870;42.680;23.364;2023-11-21T01:45:19;51.30;;;27.80;;
5690;SDS011;2870;42.680;23.364;2023-11-21T01:47:46;64.13;;;30.53;;
5690;SDS011;2870;42.680;23.364;2023-11-21T01:50:13;41.73;;;26.10;;
5690;SDS011;2870;42.680;23.364;2023-11-21T01:52:42;51.07;;;27.20;;
5690;SDS011;2870;42.680;23.364;2023-11-21T01:55:10;50.03;;;28.13;;
5690;SDS011;2870;42.680;23.364;2023-11-21T01:57:37;50.17;;;27.33;;
5690;SDS011;2870;42.680;23.364;2023-11-21T02:00:04;55.40;;;28.00;;
5690;SDS011;2870;42.680;23.364;2023-11-21T02:02:40;48.17;;;27.67;;
5690;SDS011;2870;42.680;23.364;2023-11-21T02:05:07;44.43;;;25.57;;
5690;SDS011;2870;42.680;23.364;2023-11-21T02:07:34;51.43;;;27.80;;
5690;SDS011;2870;42.680;23.364;2023-11-21T02:10:04;48.80;;;25.90;;
5690;SDS011;2870;42.680;23.364;2023-11-21T02:12:31;55.50;;;27.30;;
5690;SDS011;2870;42.680;23.364;2023-11-21T02:14:57;48.80;;;24.80;;
5690;SDS011;2870;42.680;23.364;2023-11-21T02:17:24;47.87;;;26.67;;
5690;SDS011;2870;42.680;23.364;2023-11-21T02:19:52;52.20;;;26.27;;
5690;SDS011;2870;42.680;23.364;2023-11-21T02:22:19;44.17;;;23.40;;
5690;SDS011;2870;42.680;23.364;2023-11-21T02:24:47;42.00;;;25.00;;
5690;SDS011;2870;42.680;23.364;2023-11-21T02:27:13;40.70;;;25.40;;
5690;SDS011;2870;42.680;23.364;2023-11-21T02:29:42;44.27;;;25.60;;
5690;SDS011;2870;42.680;23.364;2023-11-21T02:32:08;45.87;;;24.30;;
5690;SDS011;2870;42.680;23.364;2023-11-21T02:34:35;39.93;;;23.33;;
5690;SDS011;2870;42.680;23.364;2023-11-21T02:37:03;39.90;;;22.80;;
5690;SDS011;2870;42.680;23.364;2023-11-21T02:39:31;47.37;;;22.77;;
5690;SDS011;2870;42.680;23.364;2023-11-21T02:41:58;40.40;;;23.13;;
5690;SDS011;2870;42.680;23.364;2023-11-21T02:44:25;41.47;;;22.77;;
5690;SDS011;2870;42.680;23.364;2023-11-21T02:46:52;41.17;;;23.03;;
5690;SDS011;2870;42.680;23.364;2023-11-21T02:49:19;42.00;;;23.27;;
5690;SDS011;2870;42.680;23.364;2023-11-21T02:51:45;43.77;;;23.50;;
5690;SDS011;2870;42.680;23.364;2023-11-21T02:54:11;37.33;;;21.07;;
5690;SDS011;2870;42.680;23.364;2023-11-21T02:56:38;44.43;;;22.20;;
5690;SDS011;2870;42.680;23.364;2023-11-21T02:59:06;34.30;;;20.90;;
5690;SDS011;2870;42.680;23.364;2023-11-21T03:04:32;42.57;;;22.70;;
5690;SDS011;2870;42.680;23.364;2023-11-21T03:07:00;38.03;;;20.90;;
5690;SDS011;2870;42.680;23.364;2023-11-21T03:09:26;37.70;;;22.27;;
5690;SDS011;2870;42.680;23.364;2023-11-21T03:11:53;44.33;;;23.57;;
5690;SDS011;2870;42.680;23.364;2023-11-21T03:14:21;44.60;;;24.17;;
5690;SDS011;2870;42.680;23.364;2023-11-21T03:16:47;44.17;;;21.77;;
5690;SDS011;2870;42.680;23.364;2023-11-21T03:19:14;33.80;;;21.40;;
5690;SDS011;2870;42.680;23.364;2023-11-21T03:21:41;46.30;;;23.77;;
5690;SDS011;2870;42.680;23.364;2023-11-21T03:24:07;43.53;;;24.57;;
5690;SDS011;2870;42.680;23.364;2023-11-21T03:26:34;38.97;;;24.07;;
5690;SDS011;2870;42.680;23.364;2023-11-21T03:29:02;36.57;;;22.27;;
5690;SDS011;2870;42.680;23.364;2023-11-21T03:31:31;42.43;;;23.07;;
5690;SDS011;2870;42.680;23.364;2023-11-21T03:33:57;43.50;;;23.20;;
5690;SDS011;2870;42.680;23.364;2023-11-21T03:36:24;36.47;;;21.50;;
5690;SDS011;2870;42.680;23.364;2023-11-21T03:38:51;39.83;;;21.20;;
5690;SDS011;2870;42.680;23.364;2023-11-21T03:41:17;36.23;;;22.13;;
5690;SDS011;2870;42.680;23.364;2023-11-21T03:43:44;35.43;;;20.47;;
5690;SDS011;2870;42.680;23.364;2023-11-21T03:46:10;43.47;;;22.47;;
5690;SDS011;2870;42.680;23.364;2023-11-21T03:48:38;32.40;;;19.00;;
5690;SDS011;2870;42.680;23.364;2023-11-21T03:51:05;45.90;;;21.23;;
5690;SDS011;2870;42.680;23.364;2023-11-21T03:53:32;37.03;;;21.17;;
5690;SDS011;2870;42.680;23.364;2023-11-21T03:55:58;42.80;;;22.50;;
5690;SDS011;2870;42.680;23.364;2023-11-21T03:58:26;38.30;;;24.23;;
5690;SDS011;2870;42.680;23.364;2023-11-21T04:00:53;50.07;;;25.47;;
5690;SDS011;2870;42.680;23.364;2023-11-21T04:03:19;49.63;;;23.30;;
5690;SDS011;2870;42.680;23.364;2023-11-21T04:05:47;38.30;;;21.43;;
5690;SDS011;2870;42.680;23.364;2023-11-21T04:08:13;51.20;;;21.77;;
5690;SDS011;2870;42.680;23.364;2023-11-21T04:10:40;36.37;;;21.07;;
5690;SDS011;2870;42.680;23.364;2023-11-21T04:13:07;32.60;;;21.10;;
5690;SDS011;2870;42.680;23.364;2023-11-21T04:15:33;36.90;;;20.20;;
5690;SDS011;2870;42.680;23.364;2023-11-21T04:18:00;35.47;;;20.97;;
5690;SDS011;2870;42.680;23.364;2023-11-21T04:20:26;39.73;;;19.00;;
5690;SDS011;2870;42.680;23.364;2023-11-21T04:22:54;34.40;;;20.73;;
5690;SDS011;2870;42.680;23.364;2023-11-21T04:25:21;32.10;;;18.37;;
5690;SDS011;2870;42.680;23.364;2023-11-21T04:27:48;27.37;;;17.20;;
5690;SDS011;2870;42.680;23.364;2023-11-21T04:30:15;26.70;;;16.27;;
5690;SDS011;2870;42.680;23.364;2023-11-21T04:32:41;35.80;;;19.00;;
5690;SDS011;2870;42.680;23.364;2023-11-21T04:35:08;29.77;;;17.00;;
5690;SDS011;2870;42.680;23.364;2023-11-21T04:37:34;31.10;;;16.20;;
5690;SDS011;2870;42.680;23.364;2023-11-21T04:40:03;29.23;;;16.90;;
5690;SDS011;2870;42.680;23.364;2023-11-21T04:42:33;27.60;;;17.30;;
5690;SDS011;2870;42.680;23.364;2023-11-21T04:44:59;29.63;;;17.27;;
5690;SDS011;2870;42.680;23.364;2023-11-21T04:47:26;29.10;;;16.00;;
5690;SDS011;2870;42.680;23.364;2023-11-21T04:49:54;26.90;;;15.60;;
5690;SDS011;2870;42.680;23.364;2023-11-21T04:52:20;26.80;;;16.17;;
5690;SDS011;2870;42.680;23.364;2023-11-21T04:54:47;33.20;;;16.90;;
5690;SDS011;2870;42.680;23.364;2023-11-21T04:57:14;28.87;;;16.47;;
5690;SDS011;2870;42.680;23.364;2023-11-21T04:59:43;33.40;;;17.57;;
5690;SDS011;2870;42.680;23.364;2023-11-21T05:02:09;26.13;;;15.90;;
5690;SDS011;2870;42.680;23.364;2023-11-21T05:04:36;32.83;;;19.10;;
5690;SDS011;2870;42.680;23.364;2023-11-21T05:07:02;28.00;;;17.53;;
5690;SDS011;2870;42.680;23.364;2023-11-21T05:09:29;29.37;;;17.53;;
5690;SDS011;2870;42.680;23.364;2023-11-21T05:11:57;29.30;;;17.13;;
5690;SDS011;2870;42.680;23.364;2023-11-21T05:14:26;32.33;;;16.57;;
5690;SDS011;2870;42.680;23.364;2023-11-21T05:16:53;39.67;;;18.40;;
5690;SDS011;2870;42.680;23.364;2023-11-21T05:19:19;28.80;;;17.40;;
5690;SDS011;2870;42.680;23.364;2023-11-21T05:21:46;35.20;;;17.97;;
5690;SDS011;2870;42.680;23.364;2023-11-21T05:24:13;32.50;;;18.03;;
5690;SDS011;2870;42.680;23.364;2023-11-21T05:26:40;36.20;;;19.27;;
5690;SDS011;2870;42.680;23.364;2023-11-21T05:29:07;26.90;;;16.57;;
5690;SDS011;2870;42.680;23.364;2023-11-21T05:31:35;27.07;;;17.03;;
5690;SDS011;2870;42.680;23.364;2023-11-21T05:34:03;27.07;;;15.97;;
5690;SDS011;2870;42.680;23.364;2023-11-21T05:36:30;31.33;;;18.57;;
5690;SDS011;2870;42.680;23.364;2023-11-21T05:38:56;40.20;;;15.70;;
5690;SDS011;2870;42.680;23.364;2023-11-21T05:41:23;33.20;;;19.50;;
5690;SDS011;2870;42.680;23.364;2023-11-21T05:43:50;27.40;;;18.23;;
5690;SDS011;2870;42.680;23.364;2023-11-21T05:46:19;23.03;;;15.70;;
5690;SDS011;2870;42.680;23.364;2023-11-21T05:48:47;32.70;;;15.93;;
5690;SDS011;2870;42.680;23.364;2023-11-21T05:51:14;31.57;;;17.43;;
5690;SDS011;2870;42.680;23.364;2023-11-21T05:53:40;30.33;;;17.27;;
5690;SDS011;2870;42.680;23.364;2023-11-21T05:56:07;29.13;;;15.77;;
5690;SDS011;2870;42.680;23.364;2023-11-21T05:58:33;32.30;;;17.40;;
5690;SDS011;2870;42.680;23.364;2023-11-21T06:01:00;36.70;;;19.53;;
5690;SDS011;2870;42.680;23.364;2023-11-21T06:03:26;42.17;;;22.13;;
5690;SDS011;2870;42.680;23.364;2023-11-21T06:05:54;40.40;;;22.37;;
5690;SDS011;2870;42.680;23.364;2023-11-21T06:08:21;35.57;;;19.87;;
5690;SDS011;2870;42.680;23.364;2023-11-21T06:10:47;35.93;;;22.67;;
5690;SDS011;2870;42.680;23.364;2023-11-21T06:13:14;37.00;;;22.93;;
5690;SDS011;2870;42.680;23.364;2023-11-21T06:15:41;36.77;;;22.87;;
5690;SDS011;2870;42.680;23.364;2023-11-21T06:18:07;42.93;;;23.83;;
5690;SDS011;2870;42.680;23.364;2023-11-21T06:20:35;41.13;;;25.37;;
5690;SDS011;2870;42.680;23.364;2023-11-21T06:23:03;49.73;;;26.30;;
5690;SDS011;2870;42.680;23.364;2023-11-21T06:25:30;55.67;;;29.60;;
5690;SDS011;2870;42.680;23.364;2023-11-21T06:27:58;46.43;;;27.30;;
5690;SDS011;2870;42.680;23.364;2023-11-21T06:30:24;43.97;;;26.13;;
5690;SDS011;2870;42.680;23.364;2023-11-21T06:32:51;47.87;;;26.20;;
5690;SDS011;2870;42.680;23.364;2023-11-21T06:35:18;43.67;;;24.60;;
5690;SDS011;2870;42.680;23.364;2023-11-21T06:37:45;47.30;;;22.63;;
5690;SDS011;2870;42.680;23.364;2023-11-21T06:40:14;40.17;;;21.50;;
5690;SDS011;2870;42.680;23.364;2023-11-21T06:42:41;51.37;;;22.23;;
5690;SDS011;2870;42.680;23.364;2023-11-21T06:45:09;43.83;;;21.40;;
5690;SDS011;2870;42.680;23.364;2023-11-21T06:47:36;35.57;;;22.40;;
5690;SDS011;2870;42.680;23.364;2023-11-21T06:50:03;39.77;;;22.07;;
5690;SDS011;2870;42.680;23.364;2023-11-21T06:52:30;47.00;;;25.10;;
5690;SDS011;2870;42.680;23.364;2023-11-21T06:54:56;41.30;;;23.43;;
5690;SDS011;2870;42.680;23.364;2023-11-21T06:57:24;38.00;;;22.30;;
5690;SDS011;2870;42.680;23.364;2023-11-21T06:59:51;47.30;;;22.47;;
5690;SDS011;2870;42.680;23.364;2023-11-21T07:02:17;35.97;;;20.67;;
5690;SDS011;2870;42.680;23.364;2023-11-21T07:04:44;31.50;;;20.17;;
5690;SDS011;2870;42.680;23.364;2023-11-21T07:07:11;23.93;;;15.33;;
5690;SDS011;2870;42.680;23.364;2023-11-21T07:09:38;24.57;;;14.40;;
5690;SDS011;2870;42.680;23.364;2023-11-21T07:12:05;23.40;;;14.90;;
5690;SDS011;2870;42.680;23.364;2023-11-21T07:14:34;26.63;;;15.83;;
5690;SDS011;2870;42.680;23.364;2023-11-21T07:17:00;25.47;;;16.07;;
5690;SDS011;2870;42.680;23.364;2023-11-21T07:19:27;34.90;;;16.70;;
5690;SDS011;2870;42.680;23.364;2023-11-21T07:21:54;28.03;;;14.40;;
5690;SDS011;2870;42.680;23.364;2023-11-21T07:24:20;23.40;;;15.10;;
5690;SDS011;2870;42.680;23.364;2023-11-21T07:26:48;20.13;;;14.40;;
5690;SDS011;2870;42.680;23.364;2023-11-21T07:29:14;24.73;;;15.20;;
5690;SDS011;2870;42.680;23.364;2023-11-21T07:31:42;28.30;;;15.07;;
5690;SDS011;2870;42.680;23.364;2023-11-21T07:34:09;23.57;;;15.13;;
5690;SDS011;2870;42.680;23.364;2023-11-21T07:36:37;21.93;;;14.67;;
5690;SDS011;2870;42.680;23.364;2023-11-21T07:39:03;30.57;;;15.33;;
5690;SDS011;2870;42.680;23.364;2023-11-21T07:41:31;30.23;;;16.60;;
5690;SDS011;2870;42.680;23.364;2023-11-21T07:43:58;28.93;;;16.90;;
5690;SDS011;2870;42.680;23.364;2023-11-21T07:46:24;28.60;;;14.43;;
5690;SDS011;2870;42.680;23.364;2023-11-21T07:48:53;27.03;;;15.40;;
5690;SDS011;2870;42.680;23.364;2023-11-21T07:51:20;24.33;;;15.87;;
5690;SDS011;2870;42.680;23.364;2023-11-21T07:53:47;29.30;;;16.20;;
5690;SDS011;2870;42.680;23.364;2023-11-21T07:56:13;27.63;;;15.47;;
5690;SDS011;2870;42.680;23.364;2023-11-21T07:58:40;28.03;;;14.50;;
5690;SDS011;2870;42.680;23.364;2023-11-21T08:01:06;22.50;;;15.27;;
5690;SDS011;2870;42.680;23.364;2023-11-21T08:03:33;26.97;;;14.87;;
5690;SDS011;2870;42.680;23.364;2023-11-21T08:06:01;30.73;;;15.20;;
5690;SDS011;2870;42.680;23.364;2023-11-21T08:08:30;23.20;;;14.80;;
5690;SDS011;2870;42.680;23.364;2023-11-21T08:10:57;22.60;;;14.20;;
5690;SDS011;2870;42.680;23.364;2023-11-21T08:13:23;25.03;;;15.43;;
5690;SDS011;2870;42.680;23.364;2023-11-21T08:15:50;22.50;;;14.43;;
5690;SDS011;2870;42.680;23.364;2023-11-21T08:18:17;43.73;;;27.03;;
5690;SDS011;2870;42.680;23.364;2023-11-21T08:20:43;49.40;;;26.13;;
5690;SDS011;2870;42.680;23.364;2023-11-21T08:23:14;57.60;;;23.20;;
5690;SDS011;2870;42.680;23.364;2023-11-21T08:25:42;38.70;;;23.87;;
5690;SDS011;2870;42.680;23.364;2023-11-21T08:28:08;43.20;;;25.47;;
5690;SDS011;2870;42.680;23.364;2023-11-21T08:30:35;54.43;;;27.40;;
5690;SDS011;2870;42.680;23.364;2023-11-21T08:33:01;51.60;;;28.13;;
5690;SDS011;2870;42.680;23.364;2023-11-21T08:35:28;48.27;;;26.43;;
5690;SDS011;2870;42.680;23.364;2023-11-21T08:37:55;52.83;;;30.70;;
5690;SDS011;2870;42.680;23.364;2023-11-21T08:40:23;50.93;;;28.93;;
5690;SDS011;2870;42.680;23.364;2023-11-21T08:42:50;50.83;;;28.90;;
5690;SDS011;2870;42.680;23.364;2023-11-21T08:45:17;55.03;;;28.20;;
5690;SDS011;2870;42.680;23.364;2023-11-21T08:47:44;54.40;;;30.30;;
5690;SDS011;2870;42.680;23.364;2023-11-21T08:50:10;52.83;;;30.67;;
5690;SDS011;2870;42.680;23.364;2023-11-21T08:52:37;48.60;;;29.23;;
5690;SDS011;2870;42.680;23.364;2023-11-21T08:55:04;56.87;;;27.70;;
5690;SDS011;2870;42.680;23.364;2023-11-21T08:57:34;49.17;;;30.97;;
5690;SDS011;2870;42.680;23.364;2023-11-21T09:00:00;51.30;;;31.03;;
5690;SDS011;2870;42.680;23.364;2023-11-21T09:02:27;62.93;;;29.43;;
5690;SDS011;2870;42.680;23.364;2023-11-21T09:04:54;51.13;;;30.77;;
5690;SDS011;2870;42.680;23.364;2023-11-21T09:07:20;57.40;;;28.10;;
5690;SDS011;2870;42.680;23.364;2023-11-21T09:09:47;48.67;;;29.97;;
5690;SDS011;2870;42.680;23.364;2023-11-21T09:12:14;48.63;;;30.27;;
5690;SDS011;2870;42.680;23.364;2023-11-21T09:14:42;56.47;;;33.40;;
5690;SDS011;2870;42.680;23.364;2023-11-21T09:17:09;62.50;;;37.93;;
5690;SDS011;2870;42.680;23.364;2023-11-21T09:19:37;68.90;;;37.83;;
5690;SDS011;2870;42.680;23.364;2023-11-21T09:22:03;70.57;;;40.97;;
5690;SDS011;2870;42.680;23.364;2023-11-21T09:24:30;71.40;;;40.17;;
5690;SDS011;2870;42.680;23.364;2023-11-21T09:26:56;62.53;;;34.87;;
5690;SDS011;2870;42.680;23.364;2023-11-21T09:29:23;56.33;;;34.07;;
5690;SDS011;2870;42.680;23.364;2023-11-21T09:31:51;51.23;;;32.17;;
5690;SDS011;2870;42.680;23.364;2023-11-21T09:34:18;61.40;;;32.70;;
5690;SDS011;2870;42.680;23.364;2023-11-21T09:36:44;52.17;;;32.13;;
5690;SDS011;2870;42.680;23.364;2023-11-21T09:39:11;61.03;;;29.03;;
5690;SDS011;2870;42.680;23.364;2023-11-21T09:41:40;42.70;;;26.33;;
5690;SDS011;2870;42.680;23.364;2023-11-21T09:44:09;36.70;;;22.40;;
5690;SDS011;2870;42.680;23.364;2023-11-21T09:46:39;40.90;;;22.87;;
5690;SDS011;2870;42.680;23.364;2023-11-21T09:49:08;40.13;;;21.30;;
5690;SDS011;2870;42.680;23.364;2023-11-21T09:51:37;34.17;;;20.70;;
5690;SDS011;2870;42.680;23.364;2023-11-21T09:54:06;41.73;;;22.30;;
5690;SDS011;2870;42.680;23.364;2023-11-21T09:56:34;31.60;;;19.97;;
5690;SDS011;2870;42.680;23.364;2023-11-21T09:59:01;31.47;;;19.80;;
5690;SDS011;2870;42.680;23.364;2023-11-21T10:01:31;31.53;;;17.70;;
5690;SDS011;2870;42.680;23.364;2023-11-21T10:03:58;36.10;;;18.40;;
5690;SDS011;2870;42.680;23.364;2023-11-21T10:06:27;33.47;;;19.13;;
5690;SDS011;2870;42.680;23.364;2023-11-21T10:08:55;29.60;;;17.90;;
5690;SDS011;2870;42.680;23.364;2023-11-21T10:11:22;49.53;;;18.63;;
5690;SDS011;2870;42.680;23.364;2023-11-21T10:13:52;30.57;;;18.33;;
5690;SDS011;2870;42.680;23.364;2023-11-21T10:16:19;26.10;;;17.73;;
5690;SDS011;2870;42.680;23.364;2023-11-21T10:18:48;29.80;;;17.77;;
5690;SDS011;2870;42.680;23.364;2023-11-21T10:21:17;31.67;;;17.20;;
5690;SDS011;2870;42.680;23.364;2023-11-21T10:23:45;28.23;;;17.23;;
5690;SDS011;2870;42.680;23.364;2023-11-21T10:26:12;37.87;;;17.80;;
5690;SDS011;2870;42.680;23.364;2023-11-21T10:28:41;24.70;;;16.57;;
5690;SDS011;2870;42.680;23.364;2023-11-21T10:31:08;22.40;;;14.20;;
5690;SDS011;2870;42.680;23.364;2023-11-21T10:33:34;28.23;;;15.73;;
5690;SDS011;2870;42.680;23.364;2023-11-21T10:36:01;26.37;;;16.07;;
5690;SDS011;2870;42.680;23.364;2023-11-21T10:38:27;29.87;;;16.90;;
5690;SDS011;2870;42.680;23.364;2023-11-21T10:40:57;27.07;;;14.90;;
5690;SDS011;2870;42.680;23.364;2023-11-21T10:43:25;18.23;;;12.27;;
5690;SDS011;2870;42.680;23.364;2023-11-21T10:45:51;22.90;;;15.17;;
5690;SDS011;2870;42.680;23.364;2023-11-21T10:48:18;27.20;;;16.07;;
5690;SDS011;2870;42.680;23.364;2023-11-21T10:50:43;26.30;;;17.00;;
5690;SDS011;2870;42.680;23.364;2023-11-21T10:53:10;30.03;;;16.17;;
5690;SDS011;2870;42.680;23.364;2023-11-21T10:55:38;30.73;;;14.60;;
5690;SDS011;2870;42.680;23.364;2023-11-21T10:58:06;23.67;;;15.20;;
5690;SDS011;2870;42.680;23.364;2023-11-21T11:00:35;26.20;;;14.50;;
5690;SDS011;2870;42.680;23.364;2023-11-21T11:03:03;27.37;;;14.70;;
5690;SDS011;2870;42.680;23.364;2023-11-21T11:05:29;23.87;;;15.10;;
5690;SDS011;2870;42.680;23.364;2023-11-21T11:07:58;31.03;;;15.27;;
5690;SDS011;2870;42.680;23.364;2023-11-21T11:10:27;28.17;;;13.57;;
5690;SDS011;2870;42.680;23.364;2023-11-21T11:12:54;25.80;;;15.97;;
5690;SDS011;2870;42.680;23.364;2023-11-21T11:15:23;36.70;;;17.40;;
5690;SDS011;2870;42.680;23.364;2023-11-21T11:17:50;25.90;;;15.63;;
5690;SDS011;2870;42.680;23.364;2023-11-21T11:20:17;30.23;;;16.70;;
5690;SDS011;2870;42.680;23.364;2023-11-21T11:22:48;33.23;;;17.60;;
5690;SDS011;2870;42.680;23.364;2023-11-21T11:25:25;36.17;;;19.00;;
5690;SDS011;2870;42.680;23.364;2023-11-21T11:27:54;31.93;;;19.00;;
5690;SDS011;2870;42.680;23.364;2023-11-21T11:30:27;32.63;;;17.90;;
5690;SDS011;2870;42.680;23.364;2023-11-21T11:33:04;25.07;;;16.77;;
5690;SDS011;2870;42.680;23.364;2023-11-21T11:35:33;29.63;;;18.17;;
5690;SDS011;2870;42.680;23.364;2023-11-21T11:38:01;34.23;;;17.27;;
5690;SDS011;2870;42.680;23.364;2023-11-21T11:40:38;38.20;;;16.87;;
5690;SDS011;2870;42.680;23.364;2023-11-21T11:43:05;29.20;;;17.97;;
5690;SDS011;2870;42.680;23.364;2023-11-21T11:45:34;31.43;;;20.30;;
5690;SDS011;2870;42.680;23.364;2023-11-21T11:48:02;36.83;;;23.47;;
5690;SDS011;2870;42.680;23.364;2023-11-21T11:50:29;49.47;;;22.60;;
5690;SDS011;2870;42.680;23.364;2023-11-21T11:53:12;39.90;;;23.80;;
5690;SDS011;2870;42.680;23.364;2023-11-21T11:55:39;31.97;;;19.40;;
5690;SDS011;2870;42.680;23.364;2023-11-21T11:58:06;32.83;;;19.80;;
5690;SDS011;2870;42.680;23.364;2023-11-21T12:00:35;36.80;;;21.57;;
5690;SDS011;2870;42.680;23.364;2023-11-21T12:03:03;39.07;;;20.40;;
5690;SDS011;2870;42.680;23.364;2023-11-21T12:05:30;33.57;;;19.43;;
5690;SDS011;2870;42.680;23.364;2023-11-21T12:08:00;31.93;;;21.47;;
5690;SDS011;2870;42.680;23.364;2023-11-21T12:10:28;36.10;;;21.57;;
5690;SDS011;2870;42.680;23.364;2023-11-21T12:12:55;40.70;;;23.73;;
5690;SDS011;2870;42.680;23.364;2023-11-21T12:15:23;40.30;;;24.20;;
5690;SDS011;2870;42.680;23.364;2023-11-21T12:17:51;44.53;;;26.47;;
5690;SDS011;2870;42.680;23.364;2023-11-21T12:20:19;46.83;;;26.40;;
5690;SDS011;2870;42.680;23.364;2023-11-21T12:22:46;46.50;;;28.67;;
5690;SDS011;2870;42.680;23.364;2023-11-21T12:25:14;48.13;;;27.00;;
5690;SDS011;2870;42.680;23.364;2023-11-21T12:27:43;55.70;;;28.93;;
5690;SDS011;2870;42.680;23.364;2023-11-21T12:30:11;48.40;;;30.80;;
5690;SDS011;2870;42.680;23.364;2023-11-21T12:32:40;51.13;;;29.30;;
5690;SDS011;2870;42.680;23.364;2023-11-21T12:35:09;51.90;;;29.00;;
5690;SDS011;2870;42.680;23.364;2023-11-21T12:37:36;50.53;;;27.90;;
5690;SDS011;2870;42.680;23.364;2023-11-21T12:40:03;52.93;;;30.43;;
5690;SDS011;2870;42.680;23.364;2023-11-21T12:42:31;50.77;;;29.03;;
5690;SDS011;2870;42.680;23.364;2023-11-21T12:45:07;42.10;;;27.57;;
5690;SDS011;2870;42.680;23.364;2023-11-21T12:47:39;38.43;;;26.23;;
5690;SDS011;2870;42.680;23.364;2023-11-21T12:50:06;44.07;;;26.03;;
5690;SDS011;2870;42.680;23.364;2023-11-21T12:52:40;49.53;;;26.17;;
5690;SDS011;2870;42.680;23.364;2023-11-21T12:55:08;48.17;;;25.33;;
5690;SDS011;2870;42.680;23.364;2023-11-21T12:57:35;44.03;;;25.53;;
5690;SDS011;2870;42.680;23.364;2023-11-21T13:00:03;45.47;;;23.80;;
5690;SDS011;2870;42.680;23.364;2023-11-21T13:02:36;44.83;;;23.93;;
5690;SDS011;2870;42.680;23.364;2023-11-21T13:05:03;44.80;;;26.20;;
5690;SDS011;2870;42.680;23.364;2023-11-21T13:07:42;36.17;;;21.97;;
5690;SDS011;2870;42.680;23.364;2023-11-21T13:10:11;43.20;;;25.27;;
5690;SDS011;2870;42.680;23.364;2023-11-21T13:12:42;45.30;;;24.70;;
5690;SDS011;2870;42.680;23.364;2023-11-21T13:15:09;42.87;;;24.77;;
5690;SDS011;2870;42.680;23.364;2023-11-21T13:17:36;52.50;;;26.20;;
5690;SDS011;2870;42.680;23.364;2023-11-21T13:20:03;63.67;;;25.30;;
5690;SDS011;2870;42.680;23.364;2023-11-21T13:22:33;47.93;;;25.10;;
5690;SDS011;2870;42.680;23.364;2023-11-21T13:25:02;52.57;;;25.03;;
5690;SDS011;2870;42.680;23.364;2023-11-21T13:27:32;42.30;;;25.67;;
5690;SDS011;2870;42.680;23.364;2023-11-21T13:29:59;46.17;;;24.80;;
5690;SDS011;2870;42.680;23.364;2023-11-21T13:32:26;55.13;;;27.93;;
5690;SDS011;2870;42.680;23.364;2023-11-21T13:34:52;49.30;;;26.63;;
5690;SDS011;2870;42.680;23.364;2023-11-21T13:37:19;56.23;;;26.37;;
5690;SDS011;2870;42.680;23.364;2023-11-21T13:39:46;44.20;;;27.17;;
5690;SDS011;2870;42.680;23.364;2023-11-21T13:42:16;46.60;;;25.20;;
5690;SDS011;2870;42.680;23.364;2023-11-21T13:44:42;48.90;;;26.80;;
5690;SDS011;2870;42.680;23.364;2023-11-21T13:47:11;54.33;;;26.70;;
5690;SDS011;2870;42.680;23.364;2023-11-21T13:49:38;49.97;;;26.67;;
5690;SDS011;2870;42.680;23.364;2023-11-21T13:52:06;44.50;;;26.70;;
5690;SDS011;2870;42.680;23.364;2023-11-21T13:54:32;50.00;;;25.50;;
5690;SDS011;2870;42.680;23.364;2023-11-21T13:56:59;42.10;;;25.90;;
5690;SDS011;2870;42.680;23.364;2023-11-21T13:59:27;39.33;;;26.50;;
5690;SDS011;2870;42.680;23.364;2023-11-21T14:01:55;52.03;;;27.13;;
5690;SDS011;2870;42.680;23.364;2023-11-21T14:04:22;43.73;;;25.77;;
5690;SDS011;2870;42.680;23.364;2023-11-21T14:07:04;45.57;;;26.20;;
5690;SDS011;2870;42.680;23.364;2023-11-21T14:09:45;51.87;;;27.50;;
5690;SDS011;2870;42.680;23.364;2023-11-21T14:12:14;43.50;;;28.03;;
5690;SDS011;2870;42.680;23.364;2023-11-21T14:14:42;68.80;;;30.03;;
5690;SDS011;2870;42.680;23.364;2023-11-21T14:17:10;69.07;;;27.67;;
5690;SDS011;2870;42.680;23.364;2023-11-21T14:19:36;52.07;;;27.80;;
5690;SDS011;2870;42.680;23.364;2023-11-21T14:22:05;48.97;;;29.57;;
5690;SDS011;2870;42.680;23.364;2023-11-21T14:24:32;53.27;;;29.37;;
5690;SDS011;2870;42.680;23.364;2023-11-21T14:26:59;47.67;;;28.90;;
5690;SDS011;2870;42.680;23.364;2023-11-21T14:29:26;42.03;;;28.27;;
5690;SDS011;2870;42.680;23.364;2023-11-21T14:31:56;49.30;;;29.33;;
5690;SDS011;2870;42.680;23.364;2023-11-21T14:34:23;46.20;;;29.10;;
5690;SDS011;2870;42.680;23.364;2023-11-21T14:36:49;50.43;;;29.40;;